createdAt,value
2018-09-17T00:00:31.621Z,96.41
2018-09-17T00:01:31.632Z,96.20
2018-09-17T00:02:31.606Z,96.31
2018-09-17T00:03:31.630Z,95.86
2018-09-17T00:04:31.596Z,96.16
2018-09-17T00:05:31.617Z,95.40
2018-09-17T00:06:31.622Z,95.34
2018-09-17T00:07:31.562Z,95.75
2018-09-17T00:08:31.583Z,95.61
2018-09-17T00:09:31.529Z,95.54
2018-09-17T00:10:31.530Z,95.65
2018-09-17T00:11:31.527Z,96.00
2018-09-17T00:12:31.493Z,95.49
2018-09-17T00:13:31.485Z,95.90
2018-09-17T00:14:31.502Z,95.90
2018-09-17T00:15:31.459Z,96.31
2018-09-17T00:16:31.523Z,97.28
2018-09-17T00:17:31.452Z,97.58
2018-09-17T00:18:31.437Z,96.97
2018-09-17T00:19:31.418Z,97.28
2018-09-17T00:20:31.413Z,97.32
2018-09-17T00:21:31.401Z,97.94
2018-09-17T00:22:31.406Z,97.83
2018-09-17T00:23:31.380Z,98.55
2018-09-17T00:24:31.363Z,98.25
2018-09-17T00:25:31.355Z,97.94
2018-09-17T00:26:31.346Z,98.08
2018-09-17T00:27:31.356Z,98.08
2018-09-17T00:28:31.326Z,98.39
2018-09-17T00:29:31.311Z,98.91
2018-09-17T00:30:31.308Z,99.42
2018-09-17T00:31:31.306Z,99.93
2018-09-17T00:32:31.283Z,99.63
2018-09-17T00:33:31.285Z,99.52
2018-09-17T00:34:31.309Z,99.73
2018-09-17T00:35:31.269Z,99.99
2018-09-17T00:36:31.246Z,99.99
2018-09-17T00:37:31.227Z,99.93
2018-09-17T00:38:31.216Z,99.63
2018-09-17T00:39:31.208Z,99.73
2018-09-17T00:40:31.249Z,99.63
2018-09-17T00:41:31.207Z,99.99
2018-09-17T00:42:31.222Z,99.73
2018-09-17T00:43:31.201Z,99.26
2018-09-17T00:44:31.202Z,99.99
2018-09-17T00:45:31.140Z,99.99
2018-09-17T00:46:31.130Z,99.99
2018-09-17T00:47:31.139Z,99.99
2018-09-17T00:48:31.103Z,99.99
2018-09-17T00:49:31.095Z,99.99
2018-09-17T00:50:31.088Z,99.99
2018-09-17T00:51:31.119Z,99.99
2018-09-17T00:52:31.107Z,99.99
2018-09-17T00:53:31.052Z,99.77
2018-09-17T00:54:31.058Z,99.99
2018-09-17T00:55:31.030Z,99.77
2018-09-17T00:56:31.042Z,99.99
2018-09-17T00:57:31.011Z,99.99
2018-09-17T00:58:31.000Z,99.99
2018-09-17T00:59:30.993Z,99.99
2018-09-17T01:00:31.009Z,99.99
2018-09-17T01:01:31.043Z,99.99
2018-09-17T01:02:30.954Z,99.99
2018-09-17T01:03:30.941Z,99.99
2018-09-17T01:04:30.937Z,99.99
2018-09-17T01:05:30.924Z,99.99
2018-09-17T01:06:30.934Z,99.99
2018-09-17T01:07:30.898Z,99.99
2018-09-17T01:08:30.894Z,99.99
2018-09-17T01:09:30.882Z,99.99
2018-09-17T01:10:30.874Z,99.99
2018-09-17T01:11:30.862Z,99.99
2018-09-17T01:12:30.861Z,99.99
2018-09-17T01:13:30.874Z,99.99
2018-09-17T01:14:30.825Z,99.99
2018-09-17T01:15:30.811Z,99.99
2018-09-17T01:16:30.831Z,99.99
2018-09-17T01:17:30.795Z,99.99
2018-09-17T01:18:30.784Z,99.99
2018-09-17T01:19:30.774Z,99.99
2018-09-17T01:20:30.762Z,99.99
2018-09-17T01:21:30.750Z,99.99
2018-09-17T01:22:30.764Z,99.99
2018-09-17T01:23:30.735Z,99.99
2018-09-17T01:24:30.726Z,99.99
2018-09-17T01:25:30.705Z,99.99
2018-09-17T01:26:30.697Z,99.99
2018-09-17T01:27:30.681Z,99.99
2018-09-17T01:28:30.704Z,99.99
2018-09-17T01:29:30.705Z,99.99
2018-09-17T01:30:30.671Z,99.99
2018-09-17T01:31:30.662Z,99.99
2018-09-17T01:32:30.628Z,99.99
2018-09-17T01:33:30.637Z,99.99
2018-09-17T01:34:30.615Z,99.99
2018-09-17T01:35:30.619Z,99.99
2018-09-17T01:36:30.608Z,99.99
2018-09-17T01:37:30.577Z,99.99
2018-09-17T01:38:30.580Z,99.99
2018-09-17T01:39:30.554Z,99.99
2018-09-17T01:40:30.548Z,99.99
2018-09-17T01:41:30.552Z,99.99
2018-09-17T01:42:30.523Z,99.99
2018-09-17T01:43:30.515Z,99.99
2018-09-17T01:44:30.501Z,99.99
2018-09-17T01:45:30.514Z,99.99
2018-09-17T01:46:30.537Z,99.99
2018-09-17T01:47:30.465Z,99.99
2018-09-17T01:48:30.462Z,99.99
2018-09-17T01:49:30.448Z,99.99
2018-09-17T01:50:30.440Z,99.99
2018-09-17T01:51:30.446Z,99.99
2018-09-17T01:52:30.410Z,99.99
2018-09-17T01:53:30.402Z,99.99
2018-09-17T01:54:30.434Z,99.99
2018-09-17T01:55:30.385Z,99.99
2018-09-17T01:56:30.409Z,99.99
2018-09-17T01:57:30.382Z,99.99
2018-09-17T01:58:30.348Z,99.99
2018-09-17T01:59:30.382Z,99.99
2018-09-17T02:00:30.331Z,99.99
2018-09-17T02:01:30.337Z,99.99
2018-09-17T02:02:30.307Z,99.99
2018-09-17T02:03:30.300Z,99.99
2018-09-17T02:04:30.280Z,99.99
2018-09-17T02:05:30.284Z,99.99
2018-09-17T02:06:30.279Z,99.99
2018-09-17T02:07:30.290Z,99.99
2018-09-17T02:08:30.259Z,99.99
2018-09-17T02:09:30.243Z,99.99
2018-09-17T02:10:30.237Z,99.99
2018-09-17T02:11:30.205Z,99.99
2018-09-17T02:12:30.218Z,99.99
2018-09-17T02:13:30.219Z,99.99
2018-09-17T02:14:30.183Z,99.99
2018-09-17T02:15:30.193Z,99.84
2018-09-17T02:16:30.156Z,99.99
2018-09-17T02:17:30.142Z,99.63
2018-09-17T02:18:30.131Z,99.99
2018-09-17T02:19:30.120Z,99.22
2018-09-17T02:20:30.164Z,99.18
2018-09-17T02:21:30.121Z,99.18
2018-09-17T02:22:30.091Z,99.08
2018-09-17T02:23:30.082Z,99.49
2018-09-17T02:24:30.065Z,98.11
2018-09-17T02:25:30.070Z,97.91
2018-09-17T02:26:30.066Z,97.91
2018-09-17T02:27:30.042Z,97.45
2018-09-17T02:28:30.039Z,96.88
2018-09-17T02:29:30.017Z,96.73
2018-09-17T02:30:30.002Z,97.45
2018-09-17T02:31:30.032Z,96.83
2018-09-17T02:32:29.986Z,97.34
2018-09-17T02:33:29.972Z,97.08
2018-09-17T02:34:29.993Z,96.47
2018-09-17T02:35:29.955Z,97.04
2018-09-17T02:36:29.953Z,96.57
2018-09-17T02:37:29.927Z,97.14
2018-09-17T02:38:29.917Z,96.94
2018-09-17T02:39:29.904Z,96.98
2018-09-17T02:40:29.917Z,97.08
2018-09-17T02:41:29.904Z,96.98
2018-09-17T02:42:29.874Z,96.78
2018-09-17T02:43:29.860Z,96.73
2018-09-17T02:44:29.867Z,96.12
2018-09-17T02:45:29.844Z,96.42
2018-09-17T02:46:29.887Z,96.32
2018-09-17T02:47:29.824Z,95.70
2018-09-17T02:48:29.806Z,95.87
2018-09-17T02:49:29.798Z,95.05
2018-09-17T02:50:29.787Z,95.25
2018-09-17T02:51:29.808Z,95.56
2018-09-17T02:52:29.776Z,94.84
2018-09-17T02:53:29.788Z,95.25
2018-09-17T02:54:29.755Z,94.54
2018-09-17T02:55:29.738Z,93.62
2018-09-17T02:56:29.737Z,94.02
2018-09-17T02:57:29.730Z,93.51
2018-09-17T02:58:29.722Z,94.23
2018-09-17T02:59:29.695Z,93.47
2018-09-17T03:00:29.678Z,92.75
2018-09-17T03:01:29.744Z,92.40
2018-09-17T03:02:29.660Z,92.60
2018-09-17T03:03:29.645Z,91.44
2018-09-17T03:04:29.641Z,90.21
2018-09-17T03:05:29.637Z,89.86
2018-09-17T03:06:29.635Z,88.18
2018-09-17T03:07:29.618Z,87.26
2018-09-17T03:08:29.592Z,87.84
2018-09-17T03:09:29.584Z,87.63
2018-09-17T03:10:29.572Z,87.47
2018-09-17T03:11:29.582Z,88.18
2018-09-17T03:12:29.565Z,86.51
2018-09-17T03:13:29.542Z,87.49
2018-09-17T03:14:29.532Z,86.16
2018-09-17T03:15:29.515Z,87.59
2018-09-17T03:16:29.511Z,87.43
2018-09-17T03:17:29.538Z,87.29
2018-09-17T03:18:29.560Z,87.53
2018-09-17T03:19:29.483Z,87.88
2018-09-17T03:20:29.463Z,88.08
2018-09-17T03:21:29.452Z,88.29
2018-09-17T03:22:29.449Z,88.94
2018-09-17T03:23:29.451Z,88.94
2018-09-17T03:24:29.497Z,89.50
2018-09-17T03:25:29.421Z,89.59
2018-09-17T03:26:29.419Z,89.56
2018-09-17T03:27:29.392Z,88.88
2018-09-17T03:28:29.377Z,88.33
2018-09-17T03:29:29.366Z,87.92
2018-09-17T03:30:29.358Z,87.67
2018-09-17T03:31:29.366Z,88.39
2018-09-17T03:32:29.351Z,88.29
2018-09-17T03:33:29.324Z,86.96
2018-09-17T03:34:29.312Z,87.73
2018-09-17T03:35:29.325Z,87.47
2018-09-17T03:36:29.295Z,87.16
2018-09-17T03:37:29.284Z,88.18
2018-09-17T03:38:29.270Z,86.51
2018-09-17T03:39:29.271Z,87.63
2018-09-17T03:40:29.260Z,85.69
2018-09-17T03:41:29.253Z,85.69
2018-09-17T03:42:29.224Z,85.45
2018-09-17T03:43:29.213Z,84.08
2018-09-17T03:44:29.225Z,84.59
2018-09-17T03:45:29.197Z,84.08
2018-09-17T03:46:29.235Z,82.82
2018-09-17T03:47:29.167Z,83.63
2018-09-17T03:48:29.228Z,83.63
2018-09-17T03:49:29.151Z,82.10
2018-09-17T03:50:29.140Z,82.07
2018-09-17T03:51:29.162Z,82.37
2018-09-17T03:52:29.114Z,81.86
2018-09-17T03:53:29.105Z,82.88
2018-09-17T03:54:29.094Z,82.10
2018-09-17T03:55:29.103Z,83.23
2018-09-17T03:56:29.100Z,83.23
2018-09-17T03:57:29.064Z,82.71
2018-09-17T03:58:29.057Z,83.63
2018-09-17T03:59:29.044Z,82.10
2018-09-17T04:00:29.028Z,82.10
2018-09-17T04:01:29.036Z,81.25
2018-09-17T04:02:29.012Z,82.17
2018-09-17T04:03:29.004Z,82.47
2018-09-17T04:04:28.984Z,81.96
2018-09-17T04:05:28.979Z,82.78
2018-09-17T04:06:28.981Z,82.17
2018-09-17T04:07:28.962Z,82.27
2018-09-17T04:08:28.951Z,82.61
2018-09-17T04:09:28.948Z,82.31
2018-09-17T04:10:28.923Z,83.02
2018-09-17T04:11:28.936Z,82.82
2018-09-17T04:12:28.896Z,84.14
2018-09-17T04:13:28.943Z,83.02
2018-09-17T04:14:28.880Z,84.80
2018-09-17T04:15:28.870Z,85.51
2018-09-17T04:16:28.862Z,85.30
2018-09-17T04:17:28.866Z,85.35
2018-09-17T04:18:28.834Z,84.63
2018-09-17T04:19:28.822Z,85.86
2018-09-17T04:20:28.817Z,85.24
2018-09-17T04:21:28.822Z,84.83
2018-09-17T04:22:28.794Z,83.98
2018-09-17T04:23:28.785Z,84.28
2018-09-17T04:24:28.766Z,83.78
2018-09-17T04:25:28.758Z,85.41
2018-09-17T04:26:28.746Z,85.21
2018-09-17T04:27:28.751Z,85.65
2018-09-17T04:28:28.741Z,86.57
2018-09-17T04:29:28.718Z,86.47
2018-09-17T04:30:28.706Z,87.23
2018-09-17T04:31:28.740Z,87.37
2018-09-17T04:32:28.699Z,87.98
2018-09-17T04:33:28.671Z,87.98
2018-09-17T04:34:28.681Z,88.12
2018-09-17T04:35:28.654Z,89.29
2018-09-17T04:36:28.636Z,90.11
2018-09-17T04:37:28.628Z,90.21
2018-09-17T04:38:28.815Z,90.31
2018-09-17T04:39:28.604Z,90.62
2018-09-17T04:40:28.626Z,90.82
2018-09-17T04:41:28.586Z,90.72
2018-09-17T04:42:28.597Z,91.03
2018-09-17T04:43:28.565Z,90.82
2018-09-17T04:44:28.551Z,90.77
2018-09-17T04:45:28.541Z,91.69
2018-09-17T04:46:28.527Z,91.69
2018-09-17T04:47:28.536Z,91.58
2018-09-17T04:48:28.534Z,91.99
2018-09-17T04:49:28.501Z,92.10
2018-09-17T04:50:28.483Z,91.78
2018-09-17T04:51:28.499Z,92.85
2018-09-17T04:52:28.468Z,92.55
2018-09-17T04:53:28.457Z,92.14
2018-09-17T04:54:28.448Z,92.75
2018-09-17T04:55:28.436Z,92.55
2018-09-17T04:56:28.424Z,92.44
2018-09-17T04:57:28.523Z,92.55
2018-09-17T04:58:28.468Z,92.85
2018-09-17T04:59:28.461Z,92.44
2018-09-17T05:00:28.424Z,92.40
2018-09-17T05:01:28.485Z,91.99
2018-09-17T05:02:28.403Z,91.99
2018-09-17T05:03:28.359Z,91.89
2018-09-17T05:04:28.334Z,92.10
2018-09-17T05:05:28.339Z,92.10
2018-09-17T05:06:28.320Z,92.60
2018-09-17T05:07:28.332Z,92.40
2018-09-17T05:08:28.327Z,92.81
2018-09-17T05:09:28.295Z,91.89
2018-09-17T05:10:28.268Z,91.69
2018-09-17T05:11:28.258Z,91.89
2018-09-17T05:12:28.252Z,91.78
2018-09-17T05:13:28.442Z,91.99
2018-09-17T05:14:28.270Z,91.38
2018-09-17T05:15:28.218Z,91.38
2018-09-17T05:16:28.209Z,91.38
2018-09-17T05:17:28.230Z,92.50
2018-09-17T05:18:28.181Z,92.71
2018-09-17T05:19:28.234Z,92.55
2018-09-17T05:20:28.202Z,92.44
2018-09-17T05:21:28.214Z,92.81
2018-09-17T05:22:28.137Z,91.93
2018-09-17T05:23:28.128Z,92.19
2018-09-17T05:24:28.121Z,91.89
2018-09-17T05:25:28.114Z,91.58
2018-09-17T05:26:28.128Z,91.58
2018-09-17T05:27:28.087Z,90.15
2018-09-17T05:28:28.074Z,91.13
2018-09-17T05:29:28.095Z,90.92
2018-09-17T05:30:28.115Z,90.52
2018-09-17T05:31:28.042Z,89.39
2018-09-17T05:32:28.055Z,89.76
2018-09-17T05:33:28.024Z,89.41
2018-09-17T05:34:28.019Z,89.92
2018-09-17T05:35:28.000Z,89.82
2018-09-17T05:36:28.046Z,87.98
2018-09-17T05:37:28.030Z,87.37
2018-09-17T05:38:28.044Z,88.90
2018-09-17T05:39:27.967Z,89.06
2018-09-17T05:40:27.965Z,88.76
2018-09-17T05:41:28.036Z,88.59
2018-09-17T05:42:28.000Z,87.53
2018-09-17T05:43:28.029Z,87.77
2018-09-17T05:44:28.015Z,87.73
2018-09-17T05:45:27.900Z,88.96
2018-09-17T05:46:27.888Z,89.47
2018-09-17T05:47:27.947Z,88.85
2018-09-17T05:48:27.886Z,87.32
2018-09-17T05:49:27.869Z,87.63
2018-09-17T05:50:27.839Z,88.65
2018-09-17T05:51:27.885Z,89.37
2018-09-17T05:52:27.857Z,89.37
2018-09-17T05:53:27.844Z,88.14
2018-09-17T05:54:27.876Z,87.94
2018-09-17T05:55:27.804Z,89.12
2018-09-17T05:56:27.782Z,89.37
2018-09-17T05:57:27.777Z,88.85
2018-09-17T05:58:27.763Z,89.37
2018-09-17T05:59:27.793Z,89.02
2018-09-17T06:00:27.754Z,87.18
2018-09-17T06:01:27.726Z,86.67
2018-09-17T06:02:27.725Z,85.35
2018-09-17T06:03:27.845Z,84.04
2018-09-17T06:04:27.781Z,85.06
2018-09-17T06:05:27.707Z,85.27
2018-09-17T06:06:27.669Z,84.45
2018-09-17T06:07:27.679Z,84.25
2018-09-17T06:08:27.665Z,82.98
2018-09-17T06:09:27.637Z,83.18
2018-09-17T06:10:27.627Z,83.70
2018-09-17T06:11:27.627Z,82.98
2018-09-17T06:12:27.615Z,83.39
2018-09-17T06:13:27.594Z,82.98
2018-09-17T06:14:27.603Z,83.65
2018-09-17T06:15:27.595Z,84.06
2018-09-17T06:16:27.561Z,83.96
2018-09-17T06:17:27.606Z,82.94
2018-09-17T06:18:27.591Z,82.23
2018-09-17T06:19:27.526Z,83.96
2018-09-17T06:20:27.537Z,82.23
2018-09-17T06:21:27.498Z,81.82
2018-09-17T06:22:27.506Z,82.94
2018-09-17T06:23:27.565Z,84.17
2018-09-17T06:24:27.523Z,84.67
2018-09-17T06:25:27.470Z,83.86
2018-09-17T06:26:27.469Z,84.98
2018-09-17T06:27:27.454Z,85.19
2018-09-17T06:28:27.431Z,83.04
2018-09-17T06:29:27.420Z,83.96
2018-09-17T06:30:27.410Z,84.98
2018-09-17T06:31:27.398Z,84.88
2018-09-17T06:32:27.403Z,85.49
2018-09-17T06:33:27.370Z,85.49
2018-09-17T06:34:27.360Z,84.88
2018-09-17T06:35:27.352Z,86.41
2018-09-17T06:36:27.342Z,86.30
2018-09-17T06:37:27.380Z,84.88
2018-09-17T06:38:27.321Z,85.60
2018-09-17T06:39:27.308Z,86.61
2018-09-17T06:40:27.296Z,85.60
2018-09-17T06:41:27.357Z,86.21
2018-09-17T06:42:27.310Z,87.12
2018-09-17T06:43:27.272Z,86.30
2018-09-17T06:44:27.261Z,86.30
2018-09-17T06:45:27.286Z,84.88
2018-09-17T06:46:27.229Z,82.90
2018-09-17T06:47:27.247Z,84.33
2018-09-17T06:48:27.211Z,82.09
2018-09-17T06:49:27.238Z,84.09
2018-09-17T06:50:27.192Z,83.98
2018-09-17T06:51:27.230Z,83.27
2018-09-17T06:52:27.181Z,83.68
2018-09-17T06:53:27.236Z,85.51
2018-09-17T06:54:27.151Z,82.66
2018-09-17T06:55:27.176Z,84.09
2018-09-17T06:56:27.124Z,82.15
2018-09-17T06:57:27.115Z,80.90
2018-09-17T06:58:27.110Z,82.93
2018-09-17T06:59:27.106Z,83.44
2018-09-17T07:00:27.091Z,83.95
2018-09-17T07:01:27.076Z,83.64
2018-09-17T07:02:27.063Z,83.44
2018-09-17T07:03:27.074Z,81.26
2018-09-17T07:04:27.033Z,81.67
2018-09-17T07:05:27.039Z,78.48
2018-09-17T07:06:27.069Z,79.60
2018-09-17T07:07:27.045Z,78.58
2018-09-17T07:08:26.995Z,78.24
2018-09-17T07:09:27.000Z,79.12
2018-09-17T07:10:26.981Z,77.09
2018-09-17T07:11:26.958Z,76.98
2018-09-17T07:12:26.946Z,77.19
2018-09-17T07:13:26.934Z,76.03
2018-09-17T07:14:26.954Z,75.83
2018-09-17T07:15:26.932Z,74.68
2018-09-17T07:16:26.931Z,74.58
2018-09-17T07:17:26.914Z,75.70
2018-09-17T07:18:26.887Z,73.63
2018-09-17T07:19:26.871Z,73.53
2018-09-17T07:20:26.880Z,72.92
2018-09-17T07:21:26.854Z,74.95
2018-09-17T07:22:26.862Z,72.28
2018-09-17T07:23:26.830Z,72.85
2018-09-17T07:24:26.818Z,72.24
2018-09-17T07:25:26.847Z,72.24
2018-09-17T07:26:26.811Z,71.94
2018-09-17T07:27:26.850Z,71.84
2018-09-17T07:28:26.776Z,72.55
2018-09-17T07:29:26.769Z,72.21
2018-09-17T07:30:26.767Z,70.49
2018-09-17T07:31:26.746Z,71.00
2018-09-17T07:32:26.735Z,71.37
2018-09-17T07:33:26.759Z,70.79
2018-09-17T07:34:26.727Z,71.06
2018-09-17T07:35:26.728Z,70.25
2018-09-17T07:36:26.825Z,69.65
2018-09-17T07:37:26.946Z,68.90
2018-09-17T07:38:26.717Z,69.21
2018-09-17T07:39:26.754Z,68.70
2018-09-17T07:40:26.739Z,68.70
2018-09-17T07:41:26.701Z,68.16
2018-09-17T07:42:26.822Z,68.06
2018-09-17T07:43:26.669Z,67.43
2018-09-17T07:44:26.646Z,67.02
2018-09-17T07:45:26.635Z,67.43
2018-09-17T07:46:26.585Z,66.41
2018-09-17T07:47:26.662Z,67.19
2018-09-17T07:48:26.636Z,67.29
2018-09-17T07:49:26.548Z,66.78
2018-09-17T07:50:26.533Z,67.29
2018-09-17T07:51:26.524Z,65.95
2018-09-17T07:52:26.566Z,66.05
2018-09-17T07:53:26.507Z,65.14
2018-09-17T07:54:26.498Z,65.04
2018-09-17T07:55:26.517Z,64.61
2018-09-17T07:56:26.511Z,65.71
2018-09-17T07:57:26.591Z,64.30
2018-09-17T07:58:26.476Z,65.01
2018-09-17T07:59:26.436Z,64.98
2018-09-17T08:00:26.444Z,64.98
2018-09-17T08:01:26.438Z,63.64
2018-09-17T08:02:26.413Z,64.64
2018-09-17T08:03:26.450Z,64.95
2018-09-17T08:04:26.387Z,67.36
2018-09-17T08:05:26.376Z,65.95
2018-09-17T08:06:26.369Z,63.30
2018-09-17T08:07:26.397Z,64.44
2018-09-17T08:08:26.362Z,65.32
2018-09-17T08:09:26.327Z,64.01
2018-09-17T08:10:26.323Z,63.30
2018-09-17T08:11:26.308Z,62.66
2018-09-17T08:12:26.325Z,65.39
2018-09-17T08:13:26.290Z,63.65
2018-09-17T08:14:26.283Z,63.14
2018-09-17T08:15:26.308Z,63.51
2018-09-17T08:16:26.356Z,61.40
2018-09-17T08:17:26.242Z,62.18
2018-09-17T08:18:26.237Z,62.38
2018-09-17T08:19:26.230Z,60.94
2018-09-17T08:20:26.213Z,60.64
2018-09-17T08:21:26.216Z,62.55
2018-09-17T08:22:26.192Z,62.35
2018-09-17T08:23:26.207Z,63.42
2018-09-17T08:24:26.245Z,63.82
2018-09-17T08:25:26.244Z,62.45
2018-09-17T08:26:26.178Z,61.82
2018-09-17T08:27:26.172Z,60.81
2018-09-17T08:28:26.176Z,59.08
2018-09-17T08:29:26.181Z,59.08
2018-09-17T08:30:26.100Z,59.25
2018-09-17T08:31:26.162Z,59.22
2018-09-17T08:32:26.124Z,58.62
2018-09-17T08:33:26.077Z,58.99
2018-09-17T08:34:26.056Z,59.46
2018-09-17T08:35:26.050Z,60.16
2018-09-17T08:36:26.038Z,57.26
2018-09-17T08:37:26.047Z,56.93
2018-09-17T08:38:26.043Z,58.63
2018-09-17T08:39:26.010Z,58.03
2018-09-17T08:40:25.993Z,59.94
2018-09-17T08:41:25.980Z,58.33
2018-09-17T08:42:25.987Z,58.13
2018-09-17T08:43:25.982Z,57.13
2018-09-17T08:44:25.953Z,56.80
2018-09-17T08:45:25.993Z,57.30
2018-09-17T08:46:26.008Z,57.60
2018-09-17T08:47:25.922Z,55.80
2018-09-17T08:48:25.919Z,58.20
2018-09-17T08:49:25.913Z,57.00
2018-09-17T08:50:25.920Z,58.11
2018-09-17T08:51:25.949Z,59.91
2018-09-17T08:52:25.876Z,58.00
2018-09-17T08:53:25.854Z,57.43
2018-09-17T08:54:25.840Z,60.21
2018-09-17T08:55:25.850Z,58.53
2018-09-17T08:56:25.827Z,57.80
2018-09-17T08:57:25.833Z,56.98
2018-09-17T08:58:25.803Z,57.48
2018-09-17T08:59:25.823Z,58.25
2018-09-17T09:00:25.812Z,59.85
2018-09-17T09:01:25.772Z,58.35
2018-09-17T09:02:25.757Z,56.55
2018-09-17T09:03:25.745Z,56.02
2018-09-17T09:04:25.747Z,58.32
2018-09-17T09:05:25.733Z,55.62
2018-09-17T09:06:25.733Z,58.42
2018-09-17T09:07:25.706Z,55.82
2018-09-17T09:08:25.721Z,54.90
2018-09-17T09:09:25.687Z,54.19
2018-09-17T09:10:25.688Z,54.69
2018-09-17T09:11:25.709Z,55.89
2018-09-17T09:12:25.648Z,54.29
2018-09-17T09:13:25.657Z,54.49
2018-09-17T09:14:25.649Z,55.09
2018-09-17T09:15:25.657Z,55.89
2018-09-17T09:16:25.657Z,58.80
2018-09-17T09:17:25.603Z,55.89
2018-09-17T09:18:25.587Z,55.62
2018-09-17T09:19:25.596Z,54.52
2018-09-17T09:20:25.562Z,58.19
2018-09-17T09:21:25.570Z,55.79
2018-09-17T09:22:25.549Z,57.19
2018-09-17T09:23:25.554Z,55.62
2018-09-17T09:24:25.519Z,57.52
2018-09-17T09:25:25.509Z,58.02
2018-09-17T09:26:25.500Z,57.82
2018-09-17T09:27:25.504Z,57.72
2018-09-17T09:28:25.500Z,56.59
2018-09-17T09:29:25.473Z,53.59
2018-09-17T09:30:25.474Z,53.69
2018-09-17T09:31:25.459Z,52.17
2018-09-17T09:32:25.468Z,54.44
2018-09-17T09:33:25.522Z,52.44
2018-09-17T09:34:25.612Z,52.02
2018-09-17T09:35:25.402Z,54.22
2018-09-17T09:36:25.395Z,55.69
2018-09-17T09:37:25.381Z,52.67
2018-09-17T09:38:25.369Z,52.79
2018-09-17T09:39:25.393Z,53.99
2018-09-17T09:40:25.371Z,53.49
2018-09-17T09:41:25.342Z,54.27
2018-09-17T09:42:25.328Z,52.37
2018-09-17T09:43:25.341Z,49.75
2018-09-17T09:44:25.310Z,49.85
2018-09-17T09:45:25.323Z,52.62
2018-09-17T09:46:25.292Z,48.13
2018-09-17T09:47:25.273Z,51.70
2018-09-17T09:48:25.272Z,47.61
2018-09-17T09:49:25.273Z,46.31
2018-09-17T09:50:25.289Z,47.83
2018-09-17T09:51:25.243Z,48.91
2018-09-17T09:52:25.231Z,50.02
2018-09-17T09:53:25.252Z,48.93
2018-09-17T09:54:25.279Z,48.43
2018-09-17T09:55:25.229Z,48.83
2018-09-17T09:56:25.207Z,48.80
2018-09-17T09:57:25.179Z,52.99
2018-09-17T09:58:25.160Z,46.24
2018-09-17T09:59:25.149Z,47.74
2018-09-17T10:00:25.163Z,47.91
2018-09-17T10:01:25.149Z,49.28
2018-09-17T10:02:25.142Z,51.97
2018-09-17T10:03:25.108Z,47.81
2018-09-17T10:04:25.104Z,48.01
2018-09-17T10:05:25.125Z,50.80
2018-09-17T10:06:25.074Z,48.41
2018-09-17T10:07:25.060Z,49.80
2018-09-17T10:08:25.074Z,48.21
2018-09-17T10:09:25.048Z,49.60
2018-09-17T10:10:25.034Z,49.88
2018-09-17T10:11:25.019Z,47.59
2018-09-17T10:12:25.042Z,47.79
2018-09-17T10:13:25.020Z,49.68
2018-09-17T10:14:25.021Z,46.59
2018-09-17T10:15:24.984Z,46.00
2018-09-17T10:16:24.970Z,49.68
2018-09-17T10:17:24.987Z,45.78
2018-09-17T10:18:24.949Z,45.37
2018-09-17T10:19:25.029Z,45.67
2018-09-17T10:20:24.934Z,46.08
2018-09-17T10:21:24.920Z,46.35
2018-09-17T10:22:24.938Z,45.55
2018-09-17T10:23:24.918Z,45.06
2018-09-17T10:24:24.884Z,46.05
2018-09-17T10:25:24.877Z,45.95
2018-09-17T10:26:24.870Z,46.05
2018-09-17T10:27:24.860Z,45.06
2018-09-17T10:28:24.861Z,48.83
2018-09-17T10:29:24.835Z,45.63
2018-09-17T10:30:24.823Z,45.73
2018-09-17T10:31:24.813Z,45.33
2018-09-17T10:32:24.833Z,45.43
2018-09-17T10:33:24.826Z,44.96
2018-09-17T10:34:24.813Z,45.15
2018-09-17T10:35:24.802Z,45.75
2018-09-17T10:36:24.760Z,45.75
2018-09-17T10:37:24.751Z,47.22
2018-09-17T10:38:24.739Z,49.13
2018-09-17T10:39:24.806Z,47.13
2018-09-17T10:40:24.725Z,47.54
2018-09-17T10:41:24.710Z,49.83
2018-09-17T10:42:24.704Z,46.25
2018-09-17T10:43:24.685Z,47.82
2018-09-17T10:44:24.685Z,46.23
2018-09-17T10:45:24.691Z,44.93
2018-09-17T10:46:24.714Z,48.41
2018-09-17T10:47:24.653Z,46.31
2018-09-17T10:48:24.633Z,45.73
2018-09-17T10:49:24.624Z,48.02
2018-09-17T10:50:24.630Z,51.00
2018-09-17T10:51:24.600Z,47.32
2018-09-17T10:52:24.595Z,45.14
2018-09-17T10:53:24.581Z,48.32
2018-09-17T10:54:24.573Z,45.95
2018-09-17T10:55:24.590Z,47.25
2018-09-17T10:56:24.578Z,47.25
2018-09-17T10:57:24.560Z,47.14
2018-09-17T10:58:24.532Z,48.24
2018-09-17T10:59:24.521Z,46.03
2018-09-17T11:00:24.518Z,48.02
2018-09-17T11:01:24.494Z,46.03
2018-09-17T11:02:24.504Z,45.81
2018-09-17T11:03:24.468Z,43.44
2018-09-17T11:04:24.464Z,48.71
2018-09-17T11:05:24.453Z,45.53
2018-09-17T11:06:24.460Z,47.00
2018-09-17T11:07:24.477Z,45.41
2018-09-17T11:08:24.533Z,43.52
2018-09-17T11:09:24.410Z,44.49
2018-09-17T11:10:24.394Z,43.80
2018-09-17T11:11:24.408Z,43.40
2018-09-17T11:12:24.380Z,45.56
2018-09-17T11:13:24.363Z,40.92
2018-09-17T11:14:24.350Z,43.78
2018-09-17T11:15:24.337Z,45.27
2018-09-17T11:16:24.344Z,43.58
2018-09-17T11:17:24.404Z,43.28
2018-09-17T11:18:24.309Z,44.75
2018-09-17T11:19:24.317Z,42.47
2018-09-17T11:20:24.284Z,41.67
2018-09-17T11:21:24.277Z,41.60
2018-09-17T11:22:24.269Z,40.41
2018-09-17T11:23:24.252Z,42.99
2018-09-17T11:24:24.267Z,41.99
2018-09-17T11:25:24.238Z,43.18
2018-09-17T11:26:24.225Z,43.26
2018-09-17T11:27:24.218Z,40.86
2018-09-17T11:28:24.200Z,40.86
2018-09-17T11:29:24.210Z,43.34
2018-09-17T11:30:24.186Z,44.60
2018-09-17T11:31:24.187Z,42.01
2018-09-17T11:32:24.192Z,39.34
2018-09-17T11:33:24.149Z,40.92
2018-09-17T11:34:24.140Z,39.42
2018-09-17T11:35:24.126Z,40.31
2018-09-17T11:36:24.126Z,38.80
2018-09-17T11:37:24.148Z,39.40
2018-09-17T11:38:24.143Z,38.51
2018-09-17T11:39:24.093Z,40.98
2018-09-17T11:40:24.076Z,40.96
2018-09-17T11:41:24.083Z,39.08
2018-09-17T11:42:24.056Z,36.51
2018-09-17T11:43:24.063Z,36.59
2018-09-17T11:44:24.060Z,40.64
2018-09-17T11:45:24.027Z,37.77
2018-09-17T11:46:24.013Z,39.08
2018-09-17T11:47:24.000Z,38.09
2018-09-17T11:48:24.030Z,38.88
2018-09-17T11:49:24.003Z,37.70
2018-09-17T11:50:23.982Z,37.70
2018-09-17T11:51:23.965Z,37.89
2018-09-17T11:52:23.947Z,38.96
2018-09-17T11:53:23.941Z,39.34
2018-09-17T11:54:23.947Z,38.63
2018-09-17T11:55:23.916Z,36.65
2018-09-17T11:56:23.913Z,34.95
2018-09-17T11:57:23.901Z,37.03
2018-09-17T11:58:23.908Z,39.18
2018-09-17T11:59:23.948Z,40.27
2018-09-17T12:00:23.864Z,36.52
2018-09-17T12:01:23.859Z,37.70
2018-09-17T12:02:23.854Z,39.87
2018-09-17T12:03:23.840Z,36.12
2018-09-17T12:04:23.823Z,35.07
2018-09-17T12:05:23.833Z,34.88
2018-09-17T12:06:23.813Z,35.19
2018-09-17T12:07:23.800Z,36.47
2018-09-17T12:08:23.791Z,35.28
2018-09-17T12:09:23.851Z,37.45
2018-09-17T12:10:23.786Z,36.36
2018-09-17T12:11:23.759Z,39.12
2018-09-17T12:12:23.746Z,35.17
2018-09-17T12:13:23.732Z,35.07
2018-09-17T12:14:23.726Z,37.03
2018-09-17T12:15:23.742Z,37.15
2018-09-17T12:16:23.712Z,37.43
2018-09-17T12:17:23.712Z,36.54
2018-09-17T12:18:23.685Z,36.93
2018-09-17T12:19:23.697Z,37.82
2018-09-17T12:20:23.689Z,35.47
2018-09-17T12:21:23.725Z,34.66
2018-09-17T12:22:23.641Z,35.05
2018-09-17T12:23:23.634Z,33.18
2018-09-17T12:24:23.618Z,32.59
2018-09-17T12:25:23.629Z,32.68
2018-09-17T12:26:23.613Z,32.26
2018-09-17T12:27:23.597Z,33.84
2018-09-17T12:28:23.581Z,33.16
2018-09-17T12:29:23.570Z,33.44
2018-09-17T12:30:23.558Z,36.60
2018-09-17T12:31:23.568Z,34.43
2018-09-17T12:32:23.534Z,35.79
2018-09-17T12:33:23.527Z,34.31
2018-09-17T12:34:23.515Z,34.15
2018-09-17T12:35:23.507Z,33.08
2018-09-17T12:36:23.515Z,33.26
2018-09-17T12:37:23.481Z,34.55
2018-09-17T12:38:23.472Z,32.85
2018-09-17T12:39:23.459Z,32.64
2018-09-17T12:40:23.458Z,32.34
2018-09-17T12:41:23.457Z,35.60
2018-09-17T12:42:23.502Z,32.23
2018-09-17T12:43:23.427Z,32.24
2018-09-17T12:44:23.406Z,35.48
2018-09-17T12:45:23.401Z,35.68
2018-09-17T12:46:23.394Z,31.92
2018-09-17T12:47:23.376Z,34.69
2018-09-17T12:48:23.399Z,30.65
2018-09-17T12:49:23.360Z,32.73
2018-09-17T12:50:23.347Z,32.24
2018-09-17T12:51:23.351Z,32.26
2018-09-17T12:52:23.359Z,34.63